Station: Jervois

  Atmospheric Gas Attenuation - ITU Rec 676-11   --------------- db/100km ---------------
Date Time Temp RH % AH g/m3 Dew Point Wind Direction Speed kph Gust kph Barometer mB Rainfall Since 9am 24GHz 47GHz 76GHz 122GHz 134GHz 241GHz
07 07:20 7.6 77 6.21 3.8 9 9 1015 0 14.7 23.8 33.2 86.6 73.9 251.9
07 07:10 7.3 78 6.17 3.7 7 9 1015 0 14.7 23.8 33.1 86.5 73.7 251.0
07 07:00 7.5 78 6.25 3.9 9 17 1014.4 0 14.8 23.9 33.3 87.1 74.5 253.9
07 06:50 7.9 77 6.33 4.1 9 11 1014.9 0 15.0 23.9 33.5 87.6 75.2 256.4
07 06:40 7.5 79 6.33 4.1 7 9 1014.8 0 15.0 24.0 33.7 88.0 75.6 257.7
07 06:30 7.4 79 6.29 4 9 11 1014.1 0 14.9 24.0 33.5 87.6 75.1 256.0
07 06:20 7.2 80 6.28 4 7 9 1014.4 0 14.9 24.0 33.6 87.8 75.2 256.3
07 06:10 7 80 6.2 3.8 9 11 1014.3 0 14.7 23.9 33.3 87.1 74.3 253.2
07 06:00 6.9 77 5.93 3.2 7 11 1013.7 0 14.2 23.5 32.3 84.3 70.8 240.9
07 05:50 7.9 73 6 3.4 7 7 1014.2 0 14.3 23.4 32.2 84.0 70.9 241.2
07 05:40 8.8 71 6.18 3.8 6 7 1014 0 14.6 23.4 32.5 84.9 72.3 246.5
07 05:30 9.2 69 6.16 3.8 9 13 1013.4 0 14.6 23.3 32.2 84.2 71.7 244.3
07 05:20 9.4 69 6.24 4 9 9 1013.7 0 14.7 23.4 32.5 84.9 72.5 247.3
07 05:10 9.4 70 6.33 4.2 11 11 1013.6 0 14.9 23.5 32.8 85.8 73.7 251.3
07 04:50 9.4 69 6.24 4 7 9 1013.5 0 14.7 23.4 32.5 84.8 72.5 247.2
07 04:40 9.5 69 6.28 4.1 7 9 1013.4 0 14.8 23.4 32.6 85.1 72.9 248.7
07 04:30 9.6 70 6.41 4.4 11 13 1012.7 0 15.1 23.5 33.0 86.3 74.5 254.1
07 04:20 9.5 72 6.56 4.7 13 15 1013.2 0 15.4 23.8 33.7 88.0 76.5 261.3
07 04:10 8.8 76 6.62 4.8 9 11 1013 0 15.6 24.1 34.2 89.4 78.0 266.3
07 04:00 8.4 77 6.53 4.6 9 11 1012.4 0 15.4 24.0 34.0 88.9 77.2 263.4
07 03:50 8.3 79 6.66 4.9 9 11 1012.9 0 15.7 24.3 34.6 90.4 79.0 269.9
07 03:40 8.4 80 6.79 5.2 9 11 1012.7 0 15.9 24.5 35.0 91.7 80.6 275.5
07 03:30 8.1 81 6.74 5 9 11 1012.1 0 15.9 24.4 34.9 91.4 80.2 274.1
07 03:20 8.1 81 6.74 5 9 9 1012.6 0 15.9 24.5 35.0 91.5 80.3 274.2
07 03:10 8 82 6.78 5.1 7 9 1012.5 0 15.9 24.6 35.2 92.0 80.9 276.4
07 03:00 7.9 82 6.74 5 7 9 1011.8 0 15.9 24.5 35.0 91.7 80.4 274.7
07 02:50 7.9 80 6.57 4.7 7 9 1012.5 0 15.5 24.2 34.4 89.9 78.2 267.0
07 02:40 8.3 79 6.66 4.9 7 9 1012.6 0 15.7 24.3 34.6 90.4 79.0 269.8
07 02:30 8.5 79 6.75 5.1 7 9 1012 0 15.9 24.3 34.8 91.1 79.9 273.1
07 02:20 8.7 77 6.66 4.9 4 7 1012.7 0 15.7 24.2 34.4 90.0 78.6 268.5
07 02:10 9 75 6.61 4.8 6 7 1012.7 0 15.5 24.0 34.1 89.1 77.6 265.1
07 02:00 9.4 75 6.79 5.2 7 9 1012.1 0 15.9 24.2 34.6 90.5 79.6 271.9
07 01:50 9.6 73 6.69 5 7 9 1012.7 0 15.7 24.0 34.1 89.3 78.1 266.8
07 01:40 10 72 6.77 5.2 7 9 1012.7 0 15.8 24.0 34.3 89.6 78.7 269.1
07 01:30 10.3 72 6.9 5.5 9 11 1012.2 0 16.1 24.1 34.6 90.6 80.1 273.8
07 01:20 10.4 72 6.94 5.6 7 7 1012.8 0 16.2 24.2 34.8 91.0 80.5 275.4
07 01:10 10.4 72 6.94 5.6 7 9 1012.8 0 16.2 24.2 34.8 91.0 80.5 275.4
07 01:00 10.6 73 7.13 6 9 13 1012.2 0 16.6 24.4 35.4 92.7 82.7 283.3
07 00:50 10.3 74 7.09 5.9 9 9 1012.7 0 16.5 24.4 35.4 92.7 82.6 282.6
07 00:40 10.2 74 7.04 5.8 9 11 1012.8 0 16.4 24.4 35.2 92.3 82.0 280.7
07 00:30 10.3 73 6.99 5.7 7 7 1012.2 0 16.3 24.3 35.0 91.6 81.2 277.9
07 00:20 10.7 72 7.07 5.9 6 7 1012.8 0 16.5 24.3 35.1 92.0 81.9 280.3
07 00:10 10.8 72 7.12 6 6 6 1012.9 0 16.6 24.3 35.3 92.4 82.5 282.3
07 00:00 11 71 7.11 6 6 9 1012.4 0 16.5 24.3 35.2 92.0 82.1 281.0
06 23:50 11.3 69 7.04 5.8 7 7 1013 0 16.4 24.1 34.8 91.0 80.9 276.9
06 23:40 11.6 68 7.07 5.9 7 9 1013 0 16.4 24.1 34.8 91.0 81.0 277.2
06 23:30 11.8 67 7.05 5.9 6 9 1012.5 0 16.4 24.0 34.6 90.5 80.5 275.5
06 23:20 12.2 66 7.12 6 6 7 1013.1 0 16.5 24.0 34.7 90.8 81.0 277.4
06 23:10 12.4 65 7.1 6 7 9 1013.1 0 16.4 23.9 34.5 90.4 80.5 275.8
06 23:00 12.6 63 6.97 5.8 7 11 1012.4 0 16.2 23.6 33.9 88.8 78.6 269.1
06 22:50 13 61 6.92 5.7 7 9 1012.9 0 16.0 23.5 33.6 87.9 77.7 265.7
06 22:40 13.4 60 6.98 5.8 9 11 1012.9 0 16.2 23.4 33.6 88.0 78.0 267.0
06 22:30 13.6 59 6.94 5.7 9 13 1012.2 0 16.1 23.3 33.4 87.3 77.3 264.4
06 22:20 13.9 57 6.83 5.5 9 11 1012.8 0 15.8 23.1 32.9 86.0 75.7 258.8
06 22:10 14.3 55 6.76 5.4 7 11 1012.7 0 15.6 22.9 32.4 84.8 74.4 254.5
06 22:00 14.7 53 6.67 5.2 13 22 1012 0 15.4 22.6 31.9 83.5 72.9 249.3
06 21:50 15 51 6.54 5 11 13 1012.5 0 15.2 22.4 31.4 81.9 71.1 242.9
06 21:40 15.2 49 6.36 4.6 13 17 1012.4 0 14.8 22.0 30.6 80.0 68.8 234.8
06 21:30 15.6 48 6.38 4.6 17 28 1011.7 0 14.8 22.0 30.5 79.7 68.6 234.3
06 21:20 15.8 46 6.19 4.2 17 20 1012.1 0 14.4 21.6 29.8 77.7 66.2 226.0
06 21:10 15.9 46 6.23 4.3 11 17 1011.9 0 14.5 21.7 29.9 78.0 66.6 227.3
06 21:00 16.1 46 6.31 4.5 15 24 1011.2 0 14.6 21.7 30.1 78.5 67.3 229.9
06 20:50 16.1 46 6.31 4.5 11 13 1011.4 0 14.6 21.7 30.1 78.5 67.3 229.9
06 20:40 16.2 46 6.34 4.6 9 13 1011.1 0 14.7 21.7 30.1 78.7 67.6 230.8
06 20:30 16.4 45 6.28 4.4 13 20 1010.3 0 14.6 21.6 29.8 77.9 66.7 227.6
06 20:20 16.8 44 6.29 4.5 13 17 1010.7 0 14.6 21.5 29.7 77.6 66.5 227.0
06 20:10 17 43 6.22 4.3 11 17 1010.6 0 14.4 21.4 29.4 76.7 65.5 223.6
06 20:00 17.3 42 6.19 4.3 13 19 1009.9 0 14.3 21.2 29.2 76.1 64.9 221.4
06 19:50 17.6 40 6 3.9 13 15 1010.2 0 13.9 20.9 28.4 74.1 62.5 213.1
06 19:40 17.7 40 6.03 3.9 13 19 1010 0 14.0 20.9 28.5 74.3 62.7 214.0
06 19:30 17.7 40 6.03 3.9 13 20 1009.1 0 14.0 20.9 28.4 74.2 62.7 213.8
06 19:20 17.6 40 6 3.9 15 20 1009.4 0 13.9 20.9 28.4 74.1 62.4 212.9
06 19:10 18.3 39 6.1 4.1 13 15 1009.1 0 14.1 20.8 28.5 74.3 63.0 215.0
06 19:00 18.5 38 6.01 3.9 15 22 1008.4 0 13.9 20.7 28.1 73.3 61.8 210.8
06 18:50 18.9 38 6.16 4.3 15 20 1008.8 0 14.2 20.8 28.5 74.3 63.2 215.7
06 18:40 19.2 38 6.27 4.6 17 22 1008.7 0 14.4 20.9 28.7 75.0 64.2 219.3
06 18:30 19.4 39 6.51 5.1 17 30 1008 0 14.9 21.1 29.5 76.9 66.7 228.1
06 18:20 19.6 39 6.58 5.3 19 24 1008.4 0 15.1 21.2 29.6 77.4 67.3 230.3
06 18:10 20.1 38 6.61 5.4 24 37 1008 0 15.1 21.1 29.5 77.2 67.2 230.0
06 18:00 20.7 34 6.12 4.3 28 52 1007.2 0 14.1 20.3 27.7 72.2 61.3 209.2
06 17:50 22.5 16 3.2 -4.5 26 37 1007.3 0 7.9 16.3 18.2 46.9 30.6 101.3
06 17:40 23.1 14 2.89 -5.8 37 46 1007.1 0 7.3 15.8 17.2 44.2 27.5 90.3
06 17:30 23.4 12 2.52 -7.6 32 54 1006.2 0 6.5 15.3 16.1 41.3 24.0 78.0
06 17:20 23.8 12 2.58 -7.3 37 50 1006.5 0 6.6 15.3 16.2 41.5 24.4 79.6
06 17:10 24.1 13 2.84 -6 26 33 1006.3 0 7.2 15.6 16.8 43.3 26.7 87.6
06 17:00 24.2 13 2.86 -5.9 28 52 1005.5 0 7.2 15.6 16.9 43.3 26.8 88.1
06 16:50 24.4 14 3.12 -4.8 22 32 1006 0 7.7 15.8 17.6 45.2 29.1 96.3
06 16:40 24.5 15 3.36 -3.8 32 39 1005.8 0 8.2 16.1 18.2 46.9 31.3 104.0
06 16:30 24.8 16 3.64 -2.7 28 46 1004.9 0 8.8 16.3 18.9 48.8 33.8 112.8
06 16:20 25.3 15 3.51 -3.2 22 28 1005.4 0 8.5 16.1 18.4 47.6 32.4 107.9
06 16:10 25.2 15 3.49 -3.2 32 39 1005.2 0 8.5 16.1 18.4 47.4 32.2 107.4
06 16:00 25.2 15 3.49 -3.2 32 48 1004.6 0 8.5 16.1 18.4 47.4 32.2 107.3
06 15:50 25.4 16 3.77 -2.2 33 46 1005 0 9.0 16.4 19.1 49.4 34.7 116.3
06 15:40 25.3 17 3.98 -1.5 28 33 1004.8 0 9.5 16.6 19.7 51.1 36.7 123.3
06 15:30 25.4 18 4.24 -0.6 28 39 1004.1 0 10.0 16.9 20.4 52.9 39.1 131.8
06 15:20 25.7 17 4.07 -1.2 33 43 1004.9 0 9.6 16.7 19.9 51.5 37.4 125.8
06 15:10 25.7 16 3.83 -2 28 37 1004.8 0 9.2 16.4 19.2 49.7 35.2 117.8
06 15:00 25.5 16 3.79 -2.1 39 56 1004 0 9.1 16.4 19.1 49.5 34.8 116.7
06 14:50 25.9 16 3.87 -1.8 32 46 1004.8 0 9.2 16.4 19.3 49.9 35.5 118.9
06 14:40 25.6 16 3.81 -2.1 37 44 1004.9 0 9.1 16.4 19.2 49.6 35.0 117.3

Last Refresh: 07-Aug-2020 07:25:04

Most of the information presented on this site is sourced from the Bureau of Meteorology.  Copyright in all material sourced from the Bureau of Meteorology resides with the Commonwealth of Australia.